Astrid — OFLT — position and weather

sailwx.info

Track history (hours):
 
Tides and Currents Weather Stations Pressure Air Temp Water Temp Dewpoint Dewpoint Depression Visibility Wind Speed Wind Dir Waves Ship Positions

Astrid

Last reported at 2015-May-09 17:12 UTC. Time now 2015-May-22 22:13 UTC.
Position N 60°09' E 025°02'.
Warning: this ship's position is 13 days out of date.

Length 25 m; draft 2.3 m.

Type: Sailing vessel. MMSI: 230998670.

Date/timePositionNaut miles runAvg speedWind from/ knotsBaromVisibWave heightAir tempDewpointWater temp
2015-May-09 17:12N 60°09' E 025°02'2 3.5
2015-May-09 16:33N 60°10' E 025°06'1 0.5
2015-May-09 15:33N 60°11' E 025°06'0 0.0
2015-May-09 14:33N 60°11' E 025°06'1 0.9
2015-May-09 13:06N 60°09' E 025°08'0 0.0
2015-May-09 12:30N 60°09' E 025°08'0 0.0
2015-May-09 11:30N 60°09' E 025°08'0 0.2
2015-May-09 10:33N 60°10' E 025°08'4 3.3
2015-May-09 09:27N 60°09' E 025°01'2 0.2
2015-May-08 18:28N 60°11' E 025°01'2 1.6
2015-May-08 17:16N 60°09' E 025°01'3 3.8
2015-May-08 16:33N 60°10' E 025°06'0 0.4
2015-May-08 15:33N 60°11' E 025°06'2 1.9
2015-May-08 14:33N 60°09' E 025°09'  
Track history (hours):
 
Tides and Currents Weather Stations Pressure Air Temp Water Temp Dewpoint Dewpoint Depression Visibility Wind Speed Wind Dir Waves Ship Positions

Astrid

Last reported at 2015-May-09 17:12 UTC. Time now 2015-May-22 22:13 UTC.
Position N 60°09' E 025°02'.
Warning: this ship's position is 13 days out of date.

Length 25 m; draft 2.3 m.

Type: Sailing vessel. MMSI: 230998670.

Date/timePositionNaut miles runAvg speedWind from/ knotsBaromVisibWave heightAir tempDewpointWater temp
2015-May-09 17:12N 60°09' E 025°02'2 3.5
2015-May-09 16:33N 60°10' E 025°06'1 0.5
2015-May-09 15:33N 60°11' E 025°06'0 0.0
2015-May-09 14:33N 60°11' E 025°06'1 0.9
2015-May-09 13:06N 60°09' E 025°08'0 0.0
2015-May-09 12:30N 60°09' E 025°08'0 0.0
2015-May-09 11:30N 60°09' E 025°08'0 0.2
2015-May-09 10:33N 60°10' E 025°08'4 3.3
2015-May-09 09:27N 60°09' E 025°01'2 0.2
2015-May-08 18:28N 60°11' E 025°01'2 1.6
2015-May-08 17:16N 60°09' E 025°01'3 3.8
2015-May-08 16:33N 60°10' E 025°06'0 0.4
2015-May-08 15:33N 60°11' E 025°06'2 1.9
2015-May-08 14:33N 60°09' E 025°09'  

Dump ship's entire track history